< Typhoon 199519 1995 Season Typhoon 199521 >
Typhoon 199520 (ANGELA)
General InformationTrack Information on Google MapsDetailed Wind InformationList of All Images || Disaster Info.ResourceGoogle EarthGE AnimationAtom FeedGeoJSON
Detalied Best Track (Time Zone = UTC)
Year Month Day Hour Lat. Long. Pressure (hPa) Wind (kt) Class Image Chart
1995 10 25 18 9.6 146.7 1006 0 2 Image Chart
1995 10 26 00 10.0 145.4 1008 0 2 Image Chart
1995 10 26 06 10.5 144.5 1006 0 2 Image Chart
1995 10 26 12 10.9 143.6 1004 0 2 Image Chart
1995 10 26 18 11.6 142.7 1000 35 3 Image Chart
1995 10 27 00 12.2 141.8 996 40 3 Image Chart
1995 10 27 06 12.7 140.9 992 45 3 Image Chart
1995 10 27 12 13.0 140.0 992 45 3 Image Chart
1995 10 27 18 13.2 139.3 992 45 3 Image Chart
1995 10 28 00 13.2 138.8 992 45 3 Image Chart
1995 10 28 06 13.1 138.4 990 50 4 Image Chart
1995 10 28 12 13.0 138.0 990 50 4 Image Chart
1995 10 28 18 12.8 138.0 990 50 4 Image Chart
1995 10 29 00 12.7 138.2 985 55 4 Image Chart
1995 10 29 06 12.5 138.3 985 55 4 Image Chart
1995 10 29 12 12.3 138.0 985 55 4 Image Chart
1995 10 29 18 12.2 137.4 985 55 4 Image Chart
1995 10 30 00 12.1 136.5 980 60 4 Image Chart
1995 10 30 06 11.9 135.9 980 60 4 Image Chart
1995 10 30 12 11.7 135.3 975 65 5 Image Chart
1995 10 30 18 11.7 134.7 970 70 5 Image Chart
1995 10 31 00 12.0 133.6 960 75 5 Image Chart
1995 10 31 06 12.3 132.6 960 75 5 Image Chart
1995 10 31 12 12.4 131.3 955 80 5 Image Chart
1995 10 31 18 12.4 130.2 945 85 5 Image Chart
1995 11 1 00 12.6 129.6 930 95 5 Image Chart
1995 11 1 06 13.3 129.0 920 105 5 Image Chart
1995 11 1 12 14.1 128.2 915 110 5 Image Chart
1995 11 1 18 14.4 126.9 910 115 5 Image Chart
1995 11 2 00 14.3 126.0 910 115 5 Image Chart
1995 11 2 06 14.2 125.1 910 115 5 Image Chart
1995 11 2 12 14.0 124.3 920 105 5 Image Chart
1995 11 2 18 14.1 123.2 935 90 5 Image Chart
1995 11 3 00 14.2 121.9 945 85 5 Image Chart
1995 11 3 06 14.4 120.2 965 75 5 Image Chart
1995 11 3 12 14.6 119.0 965 75 5 Image Chart
1995 11 3 18 14.5 118.0 960 75 5 Image Chart
1995 11 4 00 14.5 117.1 960 75 5 Image Chart
1995 11 4 06 15.0 116.1 960 75 5 Image Chart
1995 11 4 12 15.2 114.9 960 75 5 Image Chart
1995 11 4 18 15.4 113.8 965 70 5 Image Chart
1995 11 5 00 15.8 112.9 970 65 5 Image Chart
1995 11 5 06 16.2 112.0 975 60 4 Image Chart
1995 11 5 12 16.5 111.2 980 55 4 Image Chart
1995 11 5 18 17.0 110.6 985 50 4 Image Chart
1995 11 6 00 17.5 110.1 992 45 3 Image Chart
1995 11 6 06 17.8 109.5 998 35 3 Image Chart
1995 11 6 12 18.2 109.0 1002 0 2 Image Chart
1995 11 6 18 18.6 108.7 1006 0 2 Image Chart
1995 11 7 00 19.3 108.3 1008 0 2 Image Chart
1995 11 7 06 19.7 108.0 1010 0 2 Image Chart
1995 11 7 12 19.5 108.2 1014 0 2 Image Chart
Japan Meteorological Agency Best Track Data | Correction Date : 1996-01-19
< Typhoon 199519 1995 Season Typhoon 199521 >

Help